createdAt,value
2018-03-22T00:02:15.362Z,61.33
2018-03-22T00:04:43.881Z,63.10
2018-03-22T00:07:12.316Z,60.03
2018-03-22T00:09:40.689Z,63.85
2018-03-22T00:12:09.079Z,64.60
2018-03-22T00:14:37.453Z,74.15
2018-03-22T00:17:05.869Z,66.25
2018-03-22T00:19:34.241Z,64.75
2018-03-22T00:22:02.917Z,72.68
2018-03-22T00:24:31.352Z,63.58
2018-03-22T00:27:00.024Z,59.05
2018-03-22T00:29:28.539Z,63.08
2018-03-22T00:31:57.295Z,63.58
2018-03-22T00:34:26.619Z,61.35
2018-03-22T00:36:55.425Z,65.85
2018-03-22T00:39:24.948Z,67.32
2018-03-22T00:41:53.940Z,64.87
2018-03-22T00:44:22.773Z,60.60
2018-03-22T00:46:51.405Z,68.62
2018-03-22T00:49:19.887Z,78.95
2018-03-22T00:51:48.438Z,59.70
2018-03-22T00:54:17.053Z,66.72
2018-03-22T00:56:45.842Z,55.17
2018-03-22T00:59:14.211Z,57.35
2018-03-22T01:01:42.581Z,56.05
2018-03-22T01:04:11.003Z,61.80
2018-03-22T01:06:39.372Z,52.08
2018-03-22T01:09:07.793Z,63.40
2018-03-22T01:11:36.218Z,59.50
2018-03-22T01:14:04.598Z,57.92
2018-03-22T01:16:32.963Z,62.08
2018-03-22T01:19:01.408Z,61.83
2018-03-22T01:21:29.899Z,61.63
2018-03-22T01:23:58.560Z,67.62
2018-03-22T01:26:27.274Z,61.83
2018-03-22T01:28:56.051Z,62.50
2018-03-22T01:31:25.273Z,61.75
2018-03-22T01:33:54.806Z,62.67
2018-03-22T01:36:23.537Z,54.00
2018-03-22T01:38:52.012Z,62.22
2018-03-22T01:41:20.786Z,51.45
2018-03-22T01:43:50.164Z,55.45
2018-03-22T01:46:18.663Z,42.42
2018-03-22T01:48:47.334Z,49.15
2018-03-22T01:51:15.780Z,44.15
2018-03-22T01:53:44.177Z,43.22
2018-03-22T01:56:12.543Z,44.83
2018-03-22T01:58:40.946Z,48.03
2018-03-22T02:01:09.323Z,46.47
2018-03-22T02:03:37.695Z,50.78
2018-03-22T02:06:07.070Z,46.72
2018-03-22T02:08:35.493Z,45.83
2018-03-22T02:11:03.859Z,59.85
2018-03-22T02:13:32.492Z,49.30
2018-03-22T02:16:01.052Z,59.63
2018-03-22T02:18:29.595Z,51.80
2018-03-22T02:20:58.229Z,62.10
2018-03-22T02:23:26.941Z,44.83
2018-03-22T02:25:55.610Z,47.60
2018-03-22T02:28:24.415Z,50.10
2018-03-22T02:30:53.472Z,50.95
2018-03-22T02:33:22.367Z,55.53
2018-03-22T02:35:51.002Z,51.00
2018-03-22T02:38:19.502Z,56.80
2018-03-22T02:40:49.088Z,54.88
2018-03-22T02:43:17.637Z,51.70
2018-03-22T02:45:46.318Z,48.22
2018-03-22T02:48:14.881Z,51.40
2018-03-22T02:50:43.330Z,50.20
2018-03-22T02:53:11.688Z,46.80
2018-03-22T02:55:40.092Z,48.45
2018-03-22T02:58:08.482Z,45.10
2018-03-22T03:00:36.846Z,50.75
2018-03-22T03:03:05.210Z,49.85
2018-03-22T03:05:33.581Z,55.05
2018-03-22T03:08:02.209Z,53.95
2018-03-22T03:10:30.688Z,52.50
2018-03-22T03:12:59.180Z,60.17
2018-03-22T03:15:27.738Z,63.65
2018-03-22T03:17:56.485Z,59.75
2018-03-22T03:20:25.317Z,55.67
2018-03-22T03:22:53.926Z,58.28
2018-03-22T03:25:22.348Z,52.90
2018-03-22T03:27:50.796Z,63.30
2018-03-22T03:30:19.170Z,61.03
2018-03-22T03:32:47.571Z,50.63
2018-03-22T03:35:16.064Z,58.67
2018-03-22T03:37:44.762Z,66.87
2018-03-22T03:40:13.140Z,76.62
2018-03-22T03:42:41.552Z,57.78
2018-03-22T03:45:09.932Z,60.58
2018-03-22T03:47:38.315Z,56.45
2018-03-22T03:50:06.689Z,62.78
2018-03-22T03:52:35.049Z,61.65
2018-03-22T03:55:03.419Z,53.22
2018-03-22T03:57:32.006Z,57.38
2018-03-22T04:00:00.728Z,53.40
2018-03-22T04:02:29.430Z,62.30
2018-03-22T04:04:58.113Z,59.03
2018-03-22T04:07:27.386Z,55.38
2018-03-22T04:09:56.563Z,59.00
2018-03-22T04:12:25.368Z,57.95
2018-03-22T04:14:54.391Z,59.88
2018-03-22T04:17:23.242Z,52.42
2018-03-22T04:19:51.878Z,69.53
2018-03-22T04:22:20.630Z,64.78
2018-03-22T04:24:49.497Z,56.08
2018-03-22T04:27:18.296Z,75.53
2018-03-22T04:29:46.788Z,59.00
2018-03-22T04:32:15.356Z,65.00
2018-03-22T04:34:43.826Z,68.45
2018-03-22T04:37:12.284Z,59.80
2018-03-22T04:39:40.681Z,67.65
2018-03-22T04:42:09.164Z,58.80
2018-03-22T04:44:37.863Z,58.75
2018-03-22T04:47:06.257Z,62.75
2018-03-22T04:49:34.900Z,72.90
2018-03-22T04:52:03.300Z,78.53
2018-03-22T04:54:31.899Z,79.20
2018-03-22T04:57:00.655Z,71.90
2018-03-22T04:59:29.570Z,75.43
2018-03-22T05:01:58.231Z,71.22
2018-03-22T05:04:26.950Z,85.38
2018-03-22T05:06:55.992Z,82.72
2018-03-22T05:09:24.890Z,71.03
2018-03-22T05:11:53.692Z,66.43
2018-03-22T05:14:22.566Z,76.85
2018-03-22T05:16:51.048Z,84.03
2018-03-22T05:19:19.660Z,78.05
2018-03-22T05:21:48.192Z,70.70
2018-03-22T05:24:16.729Z,78.30
2018-03-22T05:26:45.200Z,88.25
2018-03-22T05:29:13.601Z,79.95
2018-03-22T05:31:42.022Z,85.65
2018-03-22T05:34:10.423Z,74.50
2018-03-22T05:36:38.835Z,80.68
2018-03-22T05:39:07.328Z,79.25
2018-03-22T05:41:35.733Z,85.90
2018-03-22T05:44:04.142Z,86.60
2018-03-22T05:46:32.540Z,74.53
2018-03-22T05:49:01.171Z,75.93
2018-03-22T05:51:29.761Z,79.65
2018-03-22T05:53:58.267Z,76.75
2018-03-22T05:56:27.076Z,84.43
2018-03-22T05:58:55.756Z,83.18
2018-03-22T06:01:25.476Z,79.45
2018-03-22T06:03:54.264Z,79.70
2018-03-22T06:06:22.855Z,79.53
2018-03-22T06:08:51.493Z,88.70
2018-03-22T06:11:20.014Z,87.53
2018-03-22T06:13:48.553Z,92.25
2018-03-22T06:16:17.974Z,88.37
2018-03-22T06:18:46.557Z,96.55
2018-03-22T06:21:15.064Z,78.43
2018-03-22T06:23:43.630Z,82.32
2018-03-22T06:26:12.097Z,77.72
2018-03-22T06:28:40.510Z,69.03
2018-03-22T06:31:09.033Z,73.10
2018-03-22T06:33:37.433Z,76.78
2018-03-22T06:36:05.835Z,74.05
2018-03-22T06:38:34.516Z,71.28
2018-03-22T06:41:03.138Z,74.45
2018-03-22T06:43:31.641Z,73.37
2018-03-22T06:46:00.634Z,75.75
2018-03-22T06:48:29.263Z,70.10
2018-03-22T06:50:57.967Z,76.03
2018-03-22T06:53:26.597Z,72.30
2018-03-22T06:55:55.264Z,80.00
2018-03-22T06:58:25.241Z,75.60
2018-03-22T07:00:54.269Z,75.05
2018-03-22T07:03:22.869Z,68.00
2018-03-22T07:05:51.446Z,65.68
2018-03-22T07:08:19.891Z,73.05
2018-03-22T07:10:48.313Z,60.12
2018-03-22T07:13:16.721Z,64.28
2018-03-22T07:15:45.171Z,52.25
2018-03-22T07:18:13.588Z,58.97
2018-03-22T07:20:41.989Z,55.17
2018-03-22T07:23:10.433Z,60.42
2018-03-22T07:25:38.861Z,52.85
2018-03-22T07:28:07.277Z,48.70
2018-03-22T07:30:35.660Z,54.15
2018-03-22T07:33:04.231Z,54.90
2018-03-22T07:35:32.800Z,46.85
2018-03-22T07:38:01.360Z,45.63
2018-03-22T07:40:29.993Z,42.83
2018-03-22T07:43:04.896Z,48.38
2018-03-22T07:45:33.375Z,39.92
2018-03-22T07:48:02.065Z,45.58
2018-03-22T07:50:30.889Z,43.90
2018-03-22T07:52:59.486Z,45.30
2018-03-22T07:55:28.220Z,42.90
2018-03-22T07:57:57.004Z,35.97
2018-03-22T08:00:25.903Z,40.78
2018-03-22T08:03:00.974Z,40.22
2018-03-22T08:05:29.711Z,40.67
2018-03-22T08:07:58.545Z,37.90
2018-03-22T08:10:27.802Z,36.70
2018-03-22T08:12:56.490Z,42.40
2018-03-22T08:15:25.597Z,41.55
2018-03-22T08:17:56.064Z,33.65
2018-03-22T08:20:25.135Z,30.70
2018-03-22T08:22:53.997Z,25.00
2018-03-22T08:25:22.903Z,31.67
2018-03-22T08:27:53.436Z,33.25
2018-03-22T08:30:23.079Z,26.35
2018-03-22T08:32:51.892Z,24.40
2018-03-22T08:35:20.462Z,21.33
2018-03-22T08:37:49.316Z,16.00
2018-03-22T08:40:17.774Z,20.70
2018-03-22T08:42:46.181Z,17.30
2018-03-22T08:45:14.762Z,18.10
2018-03-22T08:47:43.398Z,17.63
2018-03-22T08:50:12.016Z,18.80
2018-03-22T08:52:40.460Z,18.83
2018-03-22T08:55:08.975Z,15.80
2018-03-22T08:57:37.601Z,15.63
2018-03-22T09:00:06.046Z,14.70
2018-03-22T09:02:34.913Z,16.90
2018-03-22T09:05:03.734Z,16.00
2018-03-22T09:07:32.285Z,15.27
2018-03-22T09:10:00.925Z,14.15
2018-03-22T09:12:29.594Z,13.27
2018-03-22T09:14:58.343Z,12.13
2018-03-22T09:17:27.641Z,13.13
2018-03-22T09:19:56.324Z,7.80
2018-03-22T09:22:25.570Z,9.87
2018-03-22T09:24:54.434Z,9.17
2018-03-22T09:27:23.039Z,8.57
2018-03-22T09:29:51.447Z,9.20
2018-03-22T09:32:20.168Z,7.40
2018-03-22T09:34:48.758Z,7.37
2018-03-22T09:37:17.412Z,7.90
2018-03-22T09:39:45.899Z,5.73
2018-03-22T09:42:14.556Z,5.33
2018-03-22T09:44:43.128Z,8.10
2018-03-22T09:47:11.558Z,5.53
2018-03-22T09:49:39.995Z,5.27
2018-03-22T09:52:08.388Z,4.60
2018-03-22T09:54:36.992Z,6.50
2018-03-22T09:57:05.591Z,6.00
2018-03-22T09:59:33.984Z,4.60
2018-03-22T10:02:02.435Z,4.70
2018-03-22T10:04:30.957Z,4.87
2018-03-22T10:06:59.506Z,4.10
2018-03-22T10:09:28.060Z,3.27
2018-03-22T10:11:56.895Z,4.30
2018-03-22T10:14:25.715Z,4.80
2018-03-22T10:16:55.401Z,5.67
2018-03-22T10:19:24.637Z,4.97
2018-03-22T10:21:53.341Z,7.00
2018-03-22T10:24:21.912Z,5.10
2018-03-22T10:26:50.346Z,3.37
2018-03-22T10:29:18.828Z,3.33
2018-03-22T10:31:47.329Z,3.50
2018-03-22T10:34:15.744Z,2.80
2018-03-22T10:36:44.342Z,3.07
2018-03-22T10:39:12.841Z,2.77
2018-03-22T10:41:41.241Z,2.83
2018-03-22T10:44:09.681Z,4.20
2018-03-22T10:46:38.115Z,3.27
2018-03-22T10:49:06.580Z,4.10
2018-03-22T10:51:34.980Z,3.40
2018-03-22T10:54:05.263Z,3.23
2018-03-22T10:56:33.762Z,4.00
2018-03-22T10:59:02.371Z,3.50
2018-03-22T11:01:36.491Z,2.40
2018-03-22T11:04:07.699Z,3.20
2018-03-22T11:06:36.097Z,2.30
2018-03-22T11:09:04.617Z,3.87
2018-03-22T11:11:32.966Z,4.27
2018-03-22T11:14:01.362Z,2.47
2018-03-22T11:16:29.870Z,4.33
2018-03-22T11:18:58.601Z,3.10
2018-03-22T11:21:27.651Z,4.07
2018-03-22T11:23:56.646Z,3.33
2018-03-22T11:26:25.412Z,3.33
2018-03-22T11:28:54.121Z,2.70
2018-03-22T11:31:22.633Z,2.93
2018-03-22T11:33:51.325Z,5.20
2018-03-22T11:36:19.708Z,5.60
2018-03-22T11:38:48.178Z,2.30
2018-03-22T11:41:16.625Z,3.10
2018-03-22T11:43:45.103Z,2.10
2018-03-22T11:46:13.504Z,4.80
2018-03-22T11:48:41.997Z,2.90
2018-03-22T11:51:10.390Z,4.10
2018-03-22T11:53:38.807Z,2.80
2018-03-22T11:56:07.249Z,3.33
2018-03-22T11:58:35.759Z,3.05
2018-03-22T12:01:04.374Z,3.40
2018-03-22T12:03:33.614Z,2.93
2018-03-22T12:06:02.066Z,2.60
2018-03-22T12:08:30.647Z,4.37
2018-03-22T12:10:59.229Z,2.40
2018-03-22T12:13:27.793Z,2.50
2018-03-22T12:15:57.263Z,3.87
2018-03-22T12:18:26.475Z,3.63
2018-03-22T12:20:55.562Z,3.47
2018-03-22T12:23:24.566Z,4.93
2018-03-22T12:25:53.546Z,4.07
2018-03-22T12:28:22.070Z,3.80
2018-03-22T12:30:51.029Z,4.80
2018-03-22T12:33:19.637Z,4.65
2018-03-22T12:35:48.051Z,18.73
2018-03-22T12:38:16.513Z,6.32
2018-03-22T12:40:44.976Z,7.30
2018-03-22T12:43:13.522Z,8.60
2018-03-22T12:45:41.916Z,6.75
2018-03-22T12:48:10.396Z,9.00
2018-03-22T12:50:38.800Z,6.65
2018-03-22T12:53:07.180Z,7.40
2018-03-22T12:55:35.609Z,9.17
2018-03-22T12:58:04.151Z,11.93
2018-03-22T13:00:32.767Z,8.38
2018-03-22T13:03:01.619Z,8.88
2018-03-22T13:05:30.257Z,10.15
2018-03-22T13:07:59.136Z,14.17
2018-03-22T13:10:27.926Z,14.97
2018-03-22T13:12:56.791Z,12.05
2018-03-22T13:15:25.995Z,12.80
2018-03-22T13:17:55.846Z,9.93
2018-03-22T13:20:24.880Z,12.07
2018-03-22T13:22:53.618Z,9.15
2018-03-22T13:25:22.114Z,10.45
2018-03-22T13:27:51.429Z,11.50
2018-03-22T13:30:20.327Z,14.57
2018-03-22T13:32:48.856Z,16.87
2018-03-22T13:35:17.420Z,18.53
2018-03-22T13:37:46.039Z,16.58
2018-03-22T13:40:14.598Z,13.10
2018-03-22T13:42:43.015Z,21.57
2018-03-22T13:45:11.405Z,17.30
2018-03-22T13:47:39.818Z,17.00
2018-03-22T13:50:08.413Z,21.90
2018-03-22T13:52:36.809Z,16.45
2018-03-22T13:55:05.607Z,16.87
2018-03-22T13:57:34.002Z,26.40
2018-03-22T14:00:02.467Z,19.77
2018-03-22T14:02:31.128Z,19.50
2018-03-22T14:04:59.912Z,19.23
2018-03-22T14:07:28.714Z,18.50
2018-03-22T14:09:57.486Z,25.55
2018-03-22T14:12:26.089Z,25.20
2018-03-22T14:14:55.167Z,21.80
2018-03-22T14:17:23.779Z,27.10
2018-03-22T14:19:52.385Z,25.13
2018-03-22T14:22:20.896Z,14.67
2018-03-22T14:24:49.305Z,15.53
2018-03-22T14:27:17.813Z,20.67
2018-03-22T14:29:46.672Z,16.47
2018-03-22T14:32:15.581Z,21.00
2018-03-22T14:34:44.098Z,12.70
2018-03-22T14:37:12.626Z,15.37
2018-03-22T14:39:41.083Z,15.80
2018-03-22T14:42:09.506Z,8.47
2018-03-22T14:44:41.743Z,12.80
2018-03-22T14:47:10.108Z,9.43
2018-03-22T14:49:38.517Z,8.90
2018-03-22T14:52:06.928Z,8.53
2018-03-22T14:54:35.369Z,12.33
2018-03-22T14:57:03.910Z,9.33
2018-03-22T14:59:32.482Z,7.60
2018-03-22T15:02:01.054Z,8.07
2018-03-22T15:04:29.668Z,8.10
2018-03-22T15:06:58.348Z,7.40
2018-03-22T15:09:27.084Z,8.57
2018-03-22T15:11:55.808Z,11.20
2018-03-22T15:14:24.749Z,8.13
2018-03-22T15:16:53.669Z,7.90
2018-03-22T15:19:22.064Z,6.17
2018-03-22T15:21:51.032Z,10.20
2018-03-22T15:24:19.646Z,8.60
2018-03-22T15:26:48.188Z,9.80
2018-03-22T15:29:16.628Z,8.10
2018-03-22T15:31:45.266Z,7.30
2018-03-22T15:34:13.775Z,11.83
2018-03-22T15:36:42.242Z,8.13
2018-03-22T15:39:10.712Z,5.93
2018-03-22T15:41:39.181Z,8.53
2018-03-22T15:44:07.586Z,8.83
2018-03-22T15:46:35.994Z,8.97
2018-03-22T15:49:04.396Z,7.20
2018-03-22T15:51:32.885Z,13.93
2018-03-22T15:54:01.425Z,10.47
2018-03-22T15:56:29.888Z,5.73
2018-03-22T15:58:59.034Z,4.07
2018-03-22T16:01:28.262Z,4.30
2018-03-22T16:03:57.213Z,2.83
2018-03-22T16:06:26.023Z,3.62
2018-03-22T16:08:55.809Z,3.20
2018-03-22T16:11:25.226Z,8.10
2018-03-22T16:13:54.210Z,14.40
2018-03-22T16:16:23.373Z,16.13
2018-03-22T16:18:52.501Z,8.63
2018-03-22T16:21:21.000Z,7.57
2018-03-22T16:23:49.476Z,6.00
2018-03-22T16:26:18.348Z,8.20
2018-03-22T16:28:46.748Z,12.37
2018-03-22T16:31:15.216Z,9.55
2018-03-22T16:33:43.578Z,5.47
2018-03-22T16:36:11.955Z,6.80
2018-03-22T16:38:40.383Z,5.50
2018-03-22T16:41:08.881Z,7.20
2018-03-22T16:43:37.394Z,5.50
2018-03-22T16:46:05.797Z,3.62
2018-03-22T16:48:34.222Z,7.15
2018-03-22T16:51:02.869Z,10.35
2018-03-22T16:53:31.551Z,4.62
2018-03-22T16:56:00.294Z,5.50
2018-03-22T16:58:28.972Z,5.83
2018-03-22T17:00:57.893Z,9.85
2018-03-22T17:03:26.810Z,4.25
2018-03-22T17:05:55.673Z,16.80
2018-03-22T17:08:24.494Z,25.10
2018-03-22T17:10:53.647Z,7.17
2018-03-22T17:13:22.093Z,6.70
2018-03-22T17:15:50.589Z,5.22
2018-03-22T17:18:19.100Z,38.95
2018-03-22T17:20:47.584Z,208.35
2018-03-22T17:23:16.085Z,69.70
2018-03-22T17:25:44.692Z,4.07
2018-03-22T17:28:13.153Z,4.35
2018-03-22T17:30:41.592Z,5.18
2018-03-22T17:33:10.332Z,5.45
2018-03-22T17:35:38.712Z,6.77
2018-03-22T17:38:07.266Z,8.05
2018-03-22T17:40:35.920Z,8.52
2018-03-22T17:43:04.516Z,14.38
2018-03-22T17:45:32.975Z,15.20
2018-03-22T17:48:01.405Z,21.17
2018-03-22T17:50:29.932Z,11.07
2018-03-22T17:52:58.606Z,6.62
2018-03-22T17:55:28.066Z,7.93
2018-03-22T17:57:56.714Z,8.35
2018-03-22T18:00:25.615Z,10.40
2018-03-22T18:02:54.213Z,14.65
2018-03-22T18:05:22.854Z,13.53
2018-03-22T18:07:51.510Z,9.43
2018-03-22T18:10:20.020Z,11.57
2018-03-22T18:12:48.422Z,8.70
2018-03-22T18:15:17.047Z,9.30
2018-03-22T18:17:45.445Z,9.52
2018-03-22T18:20:13.844Z,8.15
2018-03-22T18:22:42.236Z,9.57
2018-03-22T18:25:10.637Z,10.93
2018-03-22T18:27:39.004Z,12.05
2018-03-22T18:30:07.360Z,12.20
2018-03-22T18:32:35.802Z,9.25
2018-03-22T18:35:04.228Z,10.63
2018-03-22T18:37:32.605Z,9.60
2018-03-22T18:40:01.109Z,10.57
2018-03-22T18:42:29.634Z,11.87
2018-03-22T18:44:58.710Z,11.97
2018-03-22T18:47:28.240Z,18.93
2018-03-22T18:49:56.929Z,14.43
2018-03-22T18:52:25.503Z,13.77
2018-03-22T18:54:54.417Z,15.00
2018-03-22T18:57:23.251Z,19.47
2018-03-22T18:59:52.005Z,22.70
2018-03-22T19:02:20.405Z,18.50
2018-03-22T19:04:48.869Z,17.60
2018-03-22T19:07:17.324Z,20.53
2018-03-22T19:09:45.688Z,15.00
2018-03-22T19:12:14.120Z,23.87
2018-03-22T19:14:42.626Z,19.63
2018-03-22T19:17:11.091Z,18.03
2018-03-22T19:19:39.501Z,17.50
2018-03-22T19:22:07.997Z,18.27
2018-03-22T19:24:36.405Z,34.73
2018-03-22T19:27:04.814Z,20.90
2018-03-22T19:29:33.385Z,24.60
2018-03-22T19:32:02.025Z,21.73
2018-03-22T19:34:30.645Z,18.63
2018-03-22T19:36:59.228Z,20.10
2018-03-22T19:39:27.716Z,20.97
2018-03-22T19:41:56.425Z,18.00
2018-03-22T19:44:25.131Z,18.30
2018-03-22T19:46:54.113Z,13.23
2018-03-22T19:49:22.555Z,25.93
2018-03-22T19:51:51.089Z,22.00
2018-03-22T19:54:19.659Z,29.63
2018-03-22T19:56:48.076Z,19.17
2018-03-22T19:59:16.476Z,20.30
2018-03-22T20:01:44.887Z,24.30
2018-03-22T20:04:13.284Z,19.60
2018-03-22T20:06:41.731Z,21.47
2018-03-22T20:09:10.131Z,27.07
2018-03-22T20:11:38.539Z,17.93
2018-03-22T20:14:06.940Z,19.47
2018-03-22T20:16:35.393Z,16.60
2018-03-22T20:19:03.924Z,15.60
2018-03-22T20:21:33.360Z,18.97
2018-03-22T20:24:02.037Z,14.63
2018-03-22T20:26:30.600Z,14.20
2018-03-22T20:28:59.097Z,17.03
2018-03-22T20:31:27.991Z,15.57
2018-03-22T20:33:56.794Z,16.57
2018-03-22T20:36:25.569Z,11.50
2018-03-22T20:38:54.729Z,12.07
2018-03-22T20:41:23.531Z,14.40
2018-03-22T20:43:52.289Z,14.70
2018-03-22T20:46:20.836Z,15.90
2018-03-22T20:48:49.358Z,16.67
2018-03-22T20:51:17.817Z,14.67
2018-03-22T20:53:46.283Z,14.40
2018-03-22T20:56:14.964Z,17.17
2018-03-22T20:58:43.507Z,16.27
2018-03-22T21:01:11.937Z,11.20
2018-03-22T21:03:40.331Z,14.97
2018-03-22T21:06:08.731Z,14.30
2018-03-22T21:08:37.276Z,16.37
2018-03-22T21:11:05.680Z,17.73
2018-03-22T21:13:34.072Z,13.63
2018-03-22T21:16:02.463Z,10.07
2018-03-22T21:18:30.979Z,12.57
2018-03-22T21:20:59.818Z,11.07
2018-03-22T21:23:28.420Z,9.40
2018-03-22T21:25:59.844Z,11.60
2018-03-22T21:28:29.412Z,7.50
2018-03-22T21:30:58.060Z,11.13
2018-03-22T21:33:26.456Z,12.57
2018-03-22T21:35:56.431Z,8.33
2018-03-22T21:38:25.087Z,9.80
2018-03-22T21:40:53.826Z,12.03
2018-03-22T21:43:22.219Z,12.57
2018-03-22T21:45:50.873Z,13.70
2018-03-22T21:48:19.255Z,12.37
2018-03-22T21:50:49.205Z,13.00
2018-03-22T21:53:17.610Z,9.57
2018-03-22T21:55:46.211Z,16.67
2018-03-22T21:58:14.822Z,40.47
2018-03-22T22:00:43.262Z,18.63
2018-03-22T22:03:11.790Z,21.87
2018-03-22T22:05:40.177Z,18.70
2018-03-22T22:08:08.573Z,19.60
2018-03-22T22:10:37.333Z,23.80
2018-03-22T22:13:05.736Z,29.17
2018-03-22T22:15:34.236Z,19.97
2018-03-22T22:18:02.637Z,22.00
2018-03-22T22:20:31.334Z,27.07
2018-03-22T22:23:00.031Z,30.50
2018-03-22T22:25:29.495Z,28.30
2018-03-22T22:27:58.069Z,22.63
2018-03-22T22:30:26.593Z,23.83
2018-03-22T22:32:55.216Z,27.57
2018-03-22T22:35:23.945Z,17.27
2018-03-22T22:37:52.364Z,16.37
2018-03-22T22:40:20.777Z,20.70
2018-03-22T22:42:49.197Z,21.33
2018-03-22T22:45:17.636Z,18.40
2018-03-22T22:47:46.263Z,16.57
2018-03-22T22:50:14.706Z,12.70
2018-03-22T22:52:43.115Z,17.13
2018-03-22T22:55:11.543Z,23.70
2018-03-22T22:57:39.951Z,19.97
2018-03-22T23:00:08.393Z,18.13
2018-03-22T23:02:36.776Z,14.27
2018-03-22T23:05:05.183Z,12.47
2018-03-22T23:07:33.571Z,16.40
2018-03-22T23:10:02.059Z,13.37
2018-03-22T23:12:30.688Z,15.63
2018-03-22T23:14:59.258Z,16.00
2018-03-22T23:17:27.746Z,16.40
2018-03-22T23:19:56.668Z,15.20
2018-03-22T23:22:25.407Z,16.10
2018-03-22T23:24:54.242Z,13.70
2018-03-22T23:27:22.735Z,14.73
2018-03-22T23:29:51.318Z,13.27
2018-03-22T23:32:19.822Z,16.70
2018-03-22T23:34:48.208Z,15.30
2018-03-22T23:37:16.789Z,12.20
2018-03-22T23:39:45.256Z,13.67
2018-03-22T23:42:14.025Z,14.03
2018-03-22T23:44:42.496Z,9.40
2018-03-22T23:47:10.848Z,12.67
2018-03-22T23:49:39.246Z,11.57
2018-03-22T23:52:07.615Z,13.07
2018-03-22T23:54:36.023Z,13.53
2018-03-22T23:57:04.527Z,12.27
2018-03-22T23:59:32.972Z,13.43
